Time;durP1;ratioP1;P1;durP2;ratioP2;P2;SDS_P1;SDS_P2;PMS_P1;PMS_P2;Temp;Humidity;BMP_temperature;BMP_pressure;BME280_temperature;BME280_humidity;BME280_pressure;Samples;Min_cycle;Max_cycle;Signal;HPM_P1;HPM_P2
2022/02/27 00:00:09;;;;;;;;;35.00;26.50;;;;;3.52;57.52;100765.94;6279050;20;2500271;-47
2022/02/27 00:02:38;;;;;;;;;27.50;25.00;;;;;3.25;57.76;100762.78;6285020;20;2839868;-47
2022/02/27 00:05:10;;;;;;;;;23.33;23.33;;;;;3.19;58.38;100762.00;6284787;20;3576267;-47
2022/02/27 00:07:38;;;;;;;;;35.50;26.00;;;;;3.24;57.64;100758.38;6277755;20;2496097;-46
2022/02/27 00:10:08;;;;;;;;;28.50;25.50;;;;;3.09;58.65;100747.97;6280679;20;2842201;-46
2022/02/27 00:12:37;;;;;;;;;28.00;24.00;;;;;3.02;58.65;100757.78;6282060;20;2844084;-48
2022/02/27 00:15:06;;;;;;;;;24.00;23.00;;;;;3.13;58.80;100751.47;6285366;20;2837900;-43
2022/02/27 00:17:37;;;;;;;;;27.00;22.50;;;;;3.07;59.16;100747.13;6282142;20;2508584;-44
2022/02/27 00:20:08;;;;;;;;;11.00;10.50;;;;;2.85;59.61;100750.06;6283549;20;2766991;-44
2022/02/27 00:22:39;;;;;;;;;23.60;17.80;;;;;3.10;59.76;100744.41;6306250;20;2824210;-46
2022/02/27 00:25:09;;;;;;;;;29.00;20.00;;;;;3.06;60.10;100740.06;6282216;20;2492005;-46
2022/02/27 00:27:39;;;;;;;;;19.33;18.33;;;;;3.24;59.41;100741.59;6282839;20;3562799;-44
2022/02/27 00:30:10;;;;;;;;;24.67;20.00;;;;;3.02;59.48;100738.34;6281436;20;3556631;-43
2022/02/27 00:32:39;;;;;;;;;17.00;15.33;;;;;3.06;58.92;100735.63;6281007;20;3534608;-44
2022/02/27 00:35:09;;;;;;;;;24.50;16.00;;;;;2.88;59.59;100732.38;6315702;20;3504442;-45
2022/02/27 00:37:38;;;;;;;;;31.33;29.00;;;;;3.08;59.02;100746.22;6312396;20;3583732;-44
2022/02/27 00:40:07;;;;;;;;;37.00;33.50;;;;;2.82;60.24;100738.63;6280032;20;2500294;-44
2022/02/27 00:42:35;;;;;;;;;25.50;25.50;;;;;3.08;59.79;100740.91;6279127;20;2500303;-45
2022/02/27 00:45:05;;;;;;;;;25.00;21.00;;;;;3.01;59.53;100736.59;6282606;20;2833665;-42
2022/02/27 00:47:34;;;;;;;;;24.67;22.67;;;;;3.00;59.93;100734.81;6282410;20;3570030;-46
2022/02/27 00:50:02;;;;;;;;;28.50;26.00;;;;;3.21;59.41;100738.97;6279595;20;2500950;-43
2022/02/27 00:52:31;;;;;;;;;27.33;20.33;;;;;3.05;59.80;100733.91;6280655;20;3561721;-44
2022/02/27 00:55:01;;;;;;;;;21.40;16.60;;;;;3.06;60.44;100734.78;6304970;20;2816929;-43
2022/02/27 00:57:30;;;;;;;;;28.00;24.33;;;;;3.30;59.55;100734.41;6280000;20;3580438;-43
2022/02/27 00:59:58;;;;;;;;;26.50;22.50;;;;;3.37;59.21;100731.66;6278619;20;2834651;-42
2022/02/27 01:02:27;;;;;;;;;34.00;23.50;;;;;3.33;59.46;100743.22;6282537;20;2856648;-42
2022/02/27 01:04:55;;;;;;;;;25.00;23.00;;;;;3.21;59.89;100734.56;6286961;20;2825248;-42
2022/02/27 01:07:23;;;;;;;;;33.00;25.00;;;;;3.29;59.94;100737.97;6278444;20;2500234;-45
2022/02/27 01:09:51;;;;;;;;;18.00;16.50;;;;;3.27;59.69;100734.44;6283970;20;2819025;-43
2022/02/27 01:12:18;;;;;;;;;23.00;19.00;;;;;3.24;59.84;100734.50;6282848;20;2839865;-43
2022/02/27 01:14:46;;;;;;;;;29.00;27.50;;;;;3.18;60.15;100739.88;6277591;20;2498229;-44
2022/02/27 01:17:15;;;;;;;;;33.50;28.50;;;;;3.19;60.29;100736.34;6279673;20;2500253;-45
2022/02/27 01:19:44;;;;;;;;;24.00;22.00;;;;;3.23;60.53;100738.03;6279160;20;3562746;-43
2022/02/27 01:22:13;;;;;;;;;24.33;16.00;;;;;3.13;60.39;100727.56;6283327;20;3551309;-42
2022/02/27 01:24:40;;;;;;;;;41.00;34.50;;;;;3.08;60.34;100732.94;6309871;20;2477414;-43
2022/02/27 01:27:08;;;;;;;;;28.00;24.00;;;;;2.98;60.60;100734.00;6282304;20;2837952;-42
2022/02/27 01:29:36;;;;;;;;;32.50;19.00;;;;;3.06;60.33;100730.34;6282075;20;2855651;-44
2022/02/27 01:32:05;;;;;;;;;27.00;22.50;;;;;3.07;60.64;100729.41;6279117;20;2500290;-43
2022/02/27 01:34:35;;;;;;;;;34.00;26.00;;;;;2.94;60.90;100729.63;6279331;20;2850257;-48
2022/02/27 01:37:04;;;;;;;;;41.00;35.00;;;;;3.12;60.70;100732.00;6275915;20;2500507;-47
2022/02/27 01:39:33;;;;;;;;;22.00;18.00;;;;;3.10;61.71;100731.16;6280110;20;3558576;-43
2022/02/27 01:42:00;;;;;;;;;17.00;8.00;;;;;2.90;62.12;100722.59;6278501;20;2790923;-42
2022/02/27 01:44:30;;;;;;;;;45.67;37.33;;;;;3.21;62.66;100725.69;6280583;20;2866999;-45
2022/02/27 01:47:03;;;;;;;;;28.00;28.00;;;;;2.88;62.11;100719.97;6311867;20;2837748;-44
2022/02/27 01:49:32;;;;;;;;;27.00;23.67;;;;;3.25;60.93;100725.63;6279074;20;3573258;-42
2022/02/27 01:52:03;;;;;;;;;21.50;19.50;;;;;2.99;61.41;100726.00;6282562;20;2828373;-43
2022/02/27 01:54:32;;;;;;;;;30.33;26.00;;;;;2.80;61.83;100727.16;6284496;20;3591913;-43
2022/02/27 01:57:01;;;;;;;;;34.00;23.00;;;;;2.90;61.63;100725.25;6315774;20;2854406;-43
2022/02/27 01:59:30;;;;;;;;;22.00;19.00;;;;;2.70;62.43;100730.81;6282109;20;3564838;-43
2022/02/27 02:01:58;;;;;;;;;31.50;27.50;;;;;2.73;62.58;100720.16;6284898;20;2500254;-44
2022/02/27 02:04:27;;;;;;;;;40.00;35.50;;;;;2.70;62.62;100720.22;6287678;20;2862806;-45
2022/02/27 02:06:55;;;;;;;;;45.50;29.50;;;;;2.62;62.82;100717.66;6279459;20;2500457;-44
2022/02/27 02:09:24;;;;;;;;;31.00;27.00;;;;;2.58;63.09;100722.13;6285661;20;2842967;-44
2022/02/27 02:11:52;;;;;;;;;29.00;25.00;;;;;2.69;62.87;100718.47;6284189;20;2500380;-42
2022/02/27 02:14:20;;;;;;;;;34.00;30.00;;;;;2.42;63.31;100720.53;6281977;20;2502354;-43
2022/02/27 02:16:52;;;;;;;;;25.33;23.00;;;;;2.59;63.10;100717.69;6286080;20;3564855;-42
2022/02/27 02:19:23;;;;;;;;;31.50;27.50;;;;;2.73;63.16;100721.03;6313308;20;2500745;-43
2022/02/27 02:21:59;;;;;;;;;32.50;26.00;;;;;2.48;63.01;100724.91;6287151;20;2841915;-43
2022/02/27 02:24:27;;;;;;;;;40.50;32.00;;;;;2.63;63.55;100724.69;6281336;20;2500476;-44
2022/02/27 02:26:55;;;;;;;;;29.00;24.00;;;;;2.66;62.46;100716.72;6284447;20;2500308;-44
2022/02/27 02:29:25;;;;;;;;;35.33;29.00;;;;;2.27;64.05;100716.31;6284402;20;3593001;-46
2022/02/27 02:31:57;;;;;;;;;33.50;28.00;;;;;2.31;63.90;100717.13;6283512;20;2852328;-45
2022/02/27 02:34:26;;;;;;;;;39.00;32.50;;;;;2.27;64.17;100705.69;6281715;20;2858711;-43
2022/02/27 02:36:57;;;;;;;;;35.50;28.50;;;;;2.30;64.07;100716.25;6281208;20;2508813;-44
2022/02/27 02:39:28;;;;;;;;;23.00;22.00;;;;;2.35;63.64;100719.75;6282119;20;2500305;-43
2022/02/27 02:41:58;;;;;;;;;35.00;27.00;;;;;2.43;63.52;100714.34;6281730;20;2500282;-43
2022/02/27 02:44:26;;;;;;;;;39.00;30.00;;;;;2.35;64.03;100717.09;6283166;20;2500284;-44
2022/02/27 02:46:58;;;;;;;;;31.00;24.00;;;;;2.49;63.61;100716.06;6284841;20;2843020;-42
2022/02/27 02:49:27;;;;;;;;;41.00;25.50;;;;;2.32;63.48;100713.59;6285043;20;2868019;-43
2022/02/27 02:51:58;;;;;;;;;50.00;43.00;;;;;2.44;64.54;100712.56;6284256;20;2860708;-43
2022/02/27 02:54:27;;;;;;;;;55.50;42.00;;;;;2.34;65.29;100707.41;6285693;20;2886103;-43
2022/02/27 02:56:56;;;;;;;;;47.33;40.00;;;;;2.37;65.29;100717.97;6284443;20;2873161;-43
2022/02/27 02:59:25;;;;;;;;;43.00;32.50;;;;;2.40;66.99;100712.63;6317022;20;2865945;-44
2022/02/27 03:01:55;;;;;;;;;51.33;39.67;;;;;2.60;66.17;100711.50;6283472;20;2870103;-43
2022/02/27 03:04:24;;;;;;;;;48.50;44.00;;;;;2.45;66.33;100720.53;6312936;20;2854411;-43
2022/02/27 03:06:52;;;;;;;;;38.00;32.50;;;;;2.42;64.33;100717.88;6279334;20;2504412;-44
2022/02/27 03:09:21;;;;;;;;;41.50;29.50;;;;;2.21;64.84;100716.34;6285067;20;2899216;-43
2022/02/27 03:11:48;;;;;;;;;28.50;24.00;;;;;2.28;64.58;100718.03;6284761;20;2825282;-43
2022/02/27 03:14:16;;;;;;;;;33.50;25.50;;;;;2.27;63.95;100723.38;6280239;20;2500320;-43
2022/02/27 03:16:44;;;;;;;;;35.00;31.50;;;;;2.19;64.50;100723.47;6282347;20;2500376;-44
2022/02/27 03:19:12;;;;;;;;;31.00;31.00;;;;;2.22;64.82;100720.78;6283016;20;2500424;-44
2022/02/27 03:21:41;;;;;;;;;38.50;32.50;;;;;2.27;64.36;100726.91;6284662;20;2856508;-47
2022/02/27 03:24:10;;;;;;;;;38.00;30.50;;;;;2.30;64.06;100726.00;6284035;20;2862816;-45
2022/02/27 03:26:38;;;;;;;;;25.00;22.00;;;;;2.29;64.08;100725.13;6280414;20;2500317;-47
2022/02/27 03:29:08;;;;;;;;;40.00;35.00;;;;;2.39;63.56;100737.34;6280500;20;2500285;-48
2022/02/27 03:31:36;;;;;;;;;34.50;32.00;;;;;2.34;63.74;100728.59;6282429;20;2500308;-46
2022/02/27 03:34:05;;;;;;;;;30.33;28.00;;;;;2.04;64.81;100728.91;6284267;20;3583696;-46
2022/02/27 03:36:34;;;;;;;;;33.67;28.67;;;;;2.08;64.76;100736.81;6283772;20;3590877;-45
2022/02/27 03:39:03;;;;;;;;;39.50;32.00;;;;;2.10;64.55;100734.13;6283447;20;2865915;-47
2022/02/27 03:41:31;;;;;;;;;31.00;29.50;;;;;1.97;64.95;100743.97;6280883;20;2500298;-46
2022/02/27 03:43:59;;;;;;;;;30.00;27.00;;;;;2.28;64.17;100739.25;6283444;20;2502338;-48
2022/02/27 03:46:27;;;;;;;;;45.50;31.50;;;;;2.25;63.97;100736.63;6282821;20;2508618;-53
2022/02/27 03:48:55;;;;;;;;;40.00;27.00;;;;;2.38;63.55;100738.25;6278854;20;2500274;-52
2022/02/27 03:51:24;;;;;;;;;33.00;29.00;;;;;2.36;64.18;100737.38;6284809;20;2845081;-50
2022/02/27 03:53:52;;;;;;;;;33.00;27.00;;;;;2.37;63.78;100736.50;6281804;20;2500348;-49
2022/02/27 03:56:20;;;;;;;;;35.00;29.00;;;;;2.52;64.96;100735.44;6284148;20;2500242;-50
2022/02/27 03:58:47;;;;;;;;;32.00;31.00;;;;;2.45;65.34;100739.06;6280777;20;2500393;-52
2022/02/27 04:01:18;;;;;;;;;27.50;25.00;;;;;2.33;66.50;100732.13;6279141;20;2500308;-47
2022/02/27 04:03:46;;;;;;;;;31.00;29.00;;;;;2.25;66.25;100731.34;6282806;20;2500253;-48
2022/02/27 04:06:14;;;;;;;;;22.00;19.00;;;;;2.39;65.95;100736.47;6282432;20;2810666;-49
2022/02/27 04:08:42;;;;;;;;;39.00;29.00;;;;;2.27;64.52;100736.63;6279294;20;2500333;-54
2022/02/27 04:11:11;;;;;;;;;36.00;31.33;;;;;2.09;65.07;100727.97;6283961;20;3577336;-48
2022/02/27 04:13:39;;;;;;;;;29.33;25.33;;;;;2.19;64.84;100734.06;6282842;20;3587776;-52
2022/02/27 04:16:08;;;;;;;;;25.67;23.33;;;;;2.26;64.69;100737.50;6282004;20;3563945;-50
2022/02/27 04:18:37;;;;;;;;;24.00;18.00;;;;;2.24;65.28;100734.88;6284554;20;2839943;-43
2022/02/27 04:21:06;;;;;;;;;29.50;20.00;;;;;2.43;65.02;100735.56;6283821;20;2500394;-43
2022/02/27 04:23:35;;;;;;;;;33.67;27.33;;;;;2.33;65.19;100732.13;6284978;20;3584826;-43
2022/02/27 04:26:03;;;;;;;;;36.00;33.00;;;;;2.32;65.35;100743.63;6280984;20;2500328;-43
2022/02/27 04:28:32;;;;;;;;;24.67;21.67;;;;;2.43;64.83;100746.16;6283956;20;3561699;-47
2022/02/27 04:31:00;;;;;;;;;40.00;32.00;;;;;2.24;65.50;100737.53;6280752;20;3580454;-46
2022/02/27 04:33:28;;;;;;;;;31.50;27.50;;;;;2.36;65.56;100740.03;6282089;20;2500400;-46
2022/02/27 04:35:56;;;;;;;;;26.00;18.50;;;;;2.30;65.73;100737.47;6280773;20;2834617;-48
2022/02/27 04:38:24;;;;;;;;;30.00;22.50;;;;;2.29;66.02;100751.63;6283875;20;2836823;-48
2022/02/27 04:40:52;;;;;;;;;32.00;30.00;;;;;2.32;65.83;100743.63;6281390;20;2500385;-45
2022/02/27 04:43:20;;;;;;;;;23.50;22.00;;;;;2.18;66.28;100753.47;6279026;20;2506513;-46
2022/02/27 04:45:48;;;;;;;;;38.00;25.50;;;;;2.47;65.39;100744.34;6283259;20;2865933;-45
2022/02/27 04:48:16;;;;;;;;;25.50;25.50;;;;;2.35;65.63;100746.25;6280965;20;2500262;-46
2022/02/27 04:50:44;;;;;;;;;29.50;24.50;;;;;2.35;65.84;100756.84;6279581;20;2500433;-45
2022/02/27 04:53:13;;;;;;;;;34.00;32.67;;;;;2.39;65.46;100762.97;6279981;20;3592938;-47
2022/02/27 04:55:41;;;;;;;;;40.00;32.00;;;;;2.64;65.30;100753.00;6281109;20;2500372;-47
2022/02/27 04:58:10;;;;;;;;;35.00;30.50;;;;;2.44;65.83;100766.47;6280237;20;2860865;-46
2022/02/27 05:00:38;;;;;;;;;31.00;28.00;;;;;2.56;67.47;100761.03;6282475;20;2854456;-51
2022/02/27 05:03:07;;;;;;;;;35.00;32.00;;;;;2.66;65.80;100766.22;6281423;20;2851443;-50
2022/02/27 05:05:38;;;;;;;;;25.67;19.00;;;;;2.79;67.42;100763.41;6282507;20;3575244;-49
2022/02/27 05:08:06;;;;;;;;;25.00;24.00;;;;;2.78;65.37;100771.38;6280700;20;2837842;-48
2022/02/27 05:10:36;;;;;;;;;40.00;30.50;;;;;2.78;65.49;100776.69;6278297;20;2500256;-49
2022/02/27 05:13:04;;;;;;;;;41.50;34.50;;;;;2.67;64.70;100781.25;6278699;20;2494083;-46
2022/02/27 05:15:32;;;;;;;;;36.00;28.00;;;;;2.73;64.35;100778.50;6279149;20;2500252;-47
2022/02/27 05:18:00;;;;;;;;;34.00;29.00;;;;;2.67;64.55;100771.50;6278063;20;2500255;-45
2022/02/27 05:20:28;;;;;;;;;30.50;29.00;;;;;2.75;63.54;100771.41;6278033;20;2500307;-51
2022/02/27 05:22:57;;;;;;;;;24.67;16.67;;;;;2.83;63.73;100786.31;6282337;20;3568977;-45
2022/02/27 05:25:25;;;;;;;;;30.00;27.00;;;;;2.89;63.09;100788.03;6278312;20;2500238;-49
2022/02/27 05:27:55;;;;;;;;;31.33;23.00;;;;;2.86;62.52;100785.41;6278973;20;3580430;-50
2022/02/27 05:30:24;;;;;;;;;32.50;29.00;;;;;3.02;62.71;100791.41;6275105;20;2500354;-47
2022/02/27 05:32:53;;;;;;;;;25.00;22.33;;;;;3.01;62.33;100789.66;6281778;20;3567950;-45
2022/02/27 05:35:21;;;;;;;;;22.00;15.00;;;;;3.09;61.84;100795.75;6282195;20;2806593;-44
2022/02/27 05:37:50;;;;;;;;;18.33;18.33;;;;;3.12;61.05;100803.66;6279903;20;3563799;-45
2022/02/27 05:40:19;;;;;;;;;23.33;22.00;;;;;3.25;60.39;100810.56;6310249;20;3574330;-44
2022/02/27 05:42:49;;;;;;;;;23.67;21.33;;;;;3.24;60.26;100807.94;6282381;20;3559714;-45
2022/02/27 05:45:17;;;;;;;;;33.00;26.00;;;;;3.42;59.86;100806.78;6279199;20;2500292;-47
2022/02/27 05:47:45;;;;;;;;;31.00;27.50;;;;;3.28;59.69;100810.50;6278894;20;2853369;-44
2022/02/27 05:50:13;;;;;;;;;26.67;22.33;;;;;3.36;59.50;100807.75;6279908;20;3570033;-46
2022/02/27 05:52:42;;;;;;;;;14.00;13.00;;;;;3.36;59.47;100814.84;6281689;20;2797328;-44
2022/02/27 05:55:11;;;;;;;;;29.67;24.00;;;;;3.45;59.06;100807.63;6311332;20;3566908;-45
2022/02/27 05:57:39;;;;;;;;;22.50;13.00;;;;;3.48;59.69;100812.03;6315311;20;2841976;-44
2022/02/27 06:00:08;;;;;;;;;26.00;19.00;;;;;3.52;59.26;100824.34;6280820;20;2831456;-46
2022/02/27 06:02:37;;;;;;;;;27.33;23.00;;;;;4.05;59.36;100824.41;6280598;20;3565888;-44
2022/02/27 06:05:07;;;;;;;;;28.00;21.00;;;;;4.26;58.21;100828.50;6282012;20;3570024;-44
2022/02/27 06:07:35;;;;;;;;;35.00;24.50;;;;;4.37;57.51;100831.81;6274045;20;2496108;-46
2022/02/27 06:10:05;;;;;;;;;37.50;28.50;;;;;4.04;58.16;100836.84;6280204;20;2854535;-45
2022/02/27 06:12:33;;;;;;;;;23.00;23.00;;;;;3.84;59.30;100838.91;6281051;20;3570012;-45
2022/02/27 06:15:04;;;;;;;;;35.00;26.50;;;;;4.08;58.48;100846.53;6279196;20;2850257;-44
2022/02/27 06:17:32;;;;;;;;;30.00;26.33;;;;;4.01;58.73;100852.81;6280295;20;3572079;-45
2022/02/27 06:20:07;;;;;;;;;28.50;23.50;;;;;3.94;58.57;100853.81;6277832;20;2500355;-45
2022/02/27 06:22:48;;;;;;;;;32.00;26.00;;;;;3.88;59.18;100848.59;6275928;20;2494042;-47
2022/02/27 06:25:20;;;;;;;;;32.50;28.00;;;;;3.99;58.65;100859.94;6277261;20;2500359;-45
2022/02/27 06:27:49;;;;;;;;;34.50;29.00;;;;;3.84;59.25;100857.50;6280642;20;2852361;-47
2022/02/27 06:30:22;;;;;;;;;38.00;33.50;;;;;3.87;59.00;100846.84;6278558;20;2860695;-46
2022/02/27 06:32:52;;;;;;;;;28.50;27.00;;;;;3.86;58.90;100853.94;6277456;20;2856738;-45
2022/02/27 06:35:23;;;;;;;;;31.00;27.00;;;;;3.79;59.09;100856.69;6278295;20;2841945;-45
2022/02/27 06:37:53;;;;;;;;;34.00;25.00;;;;;3.73;59.24;100861.19;6279458;20;2502460;-45
2022/02/27 06:40:22;;;;;;;;;29.00;28.50;;;;;3.68;58.94;100857.72;6282219;20;2852435;-46
2022/02/27 06:42:50;;;;;;;;;31.00;24.00;;;;;3.69;59.27;100864.81;6284660;20;2500283;-48
2022/02/27 06:45:18;;;;;;;;;30.00;25.50;;;;;3.94;58.45;100869.75;6282503;20;2500312;-49
2022/02/27 06:47:46;;;;;;;;;28.50;26.00;;;;;3.94;58.39;100864.44;6283229;20;2500255;-47
2022/02/27 06:50:15;;;;;;;;;35.00;31.00;;;;;3.42;59.36;100867.84;6281399;20;2843042;-46
2022/02/27 06:52:44;;;;;;;;;41.50;34.00;;;;;3.93;58.29;100870.66;6286586;20;2854422;-46
2022/02/27 06:55:15;;;;;;;;;35.50;28.50;;;;;3.48;59.24;100873.09;6284607;20;2848163;-49
2022/02/27 06:57:48;;;;;;;;;0.00;0.00;;;;;3.76;58.38;100878.88;6324148;20;2694000;-46
2022/02/27 07:00:20;;;;;;;;;16.33;10.00;;;;;3.53;59.26;100879.22;6315397;20;3510641;-47
2022/02/27 07:02:49;;;;;;;;;32.00;27.00;;;;;3.35;60.47;100872.38;6315566;20;2860759;-45
2022/02/27 07:05:18;;;;;;;;;43.33;36.33;;;;;3.65;59.98;100873.72;6282901;20;2869077;-45
2022/02/27 07:07:48;;;;;;;;;89.67;67.33;;;;;3.45;59.84;100884.63;6313756;20;3646160;-44
2022/02/27 07:10:16;;;;;;;;;33.50;27.00;;;;;3.64;59.06;100877.28;6311751;20;2491921;-47
2022/02/27 07:12:47;;;;;;;;;36.50;32.50;;;;;3.64;59.66;100873.75;6284633;20;2852324;-50
2022/02/27 07:15:15;;;;;;;;;40.50;36.50;;;;;3.72;59.20;100874.53;6283696;20;2851304;-45
2022/02/27 07:17:45;;;;;;;;;86.67;65.00;;;;;4.04;58.63;100881.13;6281558;20;3643047;-45
2022/02/27 07:20:17;;;;;;;;;36.50;32.00;;;;;4.01;58.04;100882.06;6312721;20;2852327;-45
2022/02/27 07:22:46;;;;;;;;;36.50;29.00;;;;;3.26;59.78;100889.25;6283045;20;2864850;-48
2022/02/27 07:25:14;;;;;;;;;40.00;37.00;;;;;3.89;58.84;100893.72;6281024;20;2500291;-46
2022/02/27 07:27:42;;;;;;;;;60.00;47.00;;;;;4.03;58.46;100889.97;6281970;20;2500248;-45
2022/02/27 07:30:11;;;;;;;;;36.00;31.00;;;;;4.25;57.68;100895.88;6283055;20;2869013;-44
2022/02/27 07:32:39;;;;;;;;;23.50;18.00;;;;;4.00;57.95;100896.22;6285502;20;2827376;-47
2022/02/27 07:35:09;;;;;;;;;41.33;35.00;;;;;4.54;57.06;100901.56;6282342;20;2865875;-49
2022/02/27 07:37:37;;;;;;;;;67.00;55.00;;;;;4.69;55.94;100912.84;6309613;20;2489841;-46
2022/02/27 07:40:07;;;;;;;;;71.50;58.50;;;;;4.78;55.75;100907.34;6282179;20;2855591;-44
2022/02/27 07:42:36;;;;;;;;;63.00;47.00;;;;;4.91;55.40;100911.53;6284689;20;2890986;-44
2022/02/27 07:45:07;;;;;;;;;40.00;33.33;;;;;4.77;55.48;100917.13;6314899;20;2853002;-46
2022/02/27 07:47:37;;;;;;;;;37.50;30.00;;;;;4.98;54.78;100910.53;6315040;20;2860806;-45
2022/02/27 07:50:06;;;;;;;;;35.50;26.50;;;;;4.66;54.66;100910.22;6280054;20;2865907;-45
2022/02/27 07:52:35;;;;;;;;;32.00;27.50;;;;;5.12;53.89;100914.72;6283512;20;2850036;-46
2022/02/27 07:55:05;;;;;;;;;23.67;19.00;;;;;5.00;54.35;100911.38;6281205;20;3554470;-47
2022/02/27 07:57:33;;;;;;;;;27.00;21.33;;;;;5.34;52.85;100905.38;6280692;20;3571077;-45
2022/02/27 08:00:04;;;;;;;;;17.33;14.67;;;;;5.03;52.38;100913.97;6314445;20;2812918;-47
2022/02/27 08:02:33;;;;;;;;;18.67;16.33;;;;;5.03;50.86;100913.97;6314973;20;3553802;-44
2022/02/27 08:05:01;;;;;;;;;15.00;12.00;;;;;5.21;50.30;100914.53;6316058;20;2794091;-49
2022/02/27 08:07:29;;;;;;;;;10.00;10.00;;;;;5.48;49.94;100910.44;6279667;20;2789872;-45
2022/02/27 08:09:58;;;;;;;;;25.67;14.33;;;;;5.72;48.80;100909.91;6285880;20;3576464;-45
2022/02/27 08:12:28;;;;;;;;;10.00;9.80;;;;;5.70;48.59;100911.72;6340868;20;2773282;-46
2022/02/27 08:14:56;;;;;;;;;15.33;14.33;;;;;5.79;48.01;100918.63;6282148;20;2797127;-45
2022/02/27 08:17:25;;;;;;;;;25.00;18.33;;;;;6.08;47.64;100914.44;6314388;20;3571054;-51
2022/02/27 08:19:53;;;;;;;;;4.67;1.67;;;;;5.54;47.59;100907.63;6283797;20;3449341;-49
2022/02/27 08:22:22;;;;;;;;;7.60;7.00;;;;;5.64;47.36;100916.31;6340344;20;2744125;-54
2022/02/27 08:24:51;;;;;;;;;7.50;5.50;;;;;5.86;47.30;100903.38;6332660;20;1818099;-44
2022/02/27 08:27:21;;;;;;;;;8.80;7.20;;;;;5.60;46.91;100909.28;6339698;20;2751320;-49
2022/02/27 08:29:49;;;;;;;;;13.00;8.50;;;;;5.66;46.30;100909.16;6311870;20;2768036;-47
2022/02/27 08:32:21;;;;;;;;;6.33;6.33;;;;;5.64;46.40;100916.31;6326452;20;1830718;-47
2022/02/27 08:34:49;;;;;;;;;15.50;10.50;;;;;6.16;45.82;100909.81;6281393;20;2793142;-46
2022/02/27 08:37:19;;;;;;;;;13.60;11.60;;;;;6.06;45.58;100914.50;6302849;20;2796195;-47
2022/02/27 08:39:46;;;;;;;;;7.00;6.00;;;;;6.19;45.78;100900.88;6283132;20;2741944;-45
2022/02/27 08:42:16;;;;;;;;;1.25;1.25;;;;;5.96;45.52;100901.44;6302117;20;1816992;-47
2022/02/27 08:44:43;;;;;;;;;17.00;12.00;;;;;6.14;45.47;100907.19;6310393;20;2801399;-46
2022/02/27 08:47:12;;;;;;;;;11.00;8.00;;;;;6.12;45.19;100897.50;6300922;20;1819116;-45
2022/02/27 08:49:41;;;;;;;;;37.00;27.00;;;;;6.26;45.52;100903.34;6309264;20;2859653;-48
2022/02/27 08:52:08;;;;;;;;;11.50;10.00;;;;;6.62;45.20;100914.03;6283918;20;2779571;-47
2022/02/27 08:54:37;;;;;;;;;14.67;11.33;;;;;6.20;44.66;100911.50;6282889;20;2790931;-46
2022/02/27 08:57:05;;;;;;;;;10.00;10.00;;;;;7.02;44.47;100904.97;6312376;20;2764866;-45
2022/02/27 08:59:34;;;;;;;;;10.00;7.00;;;;;7.53;43.49;100923.13;6300685;20;1817055;-46
2022/02/27 09:02:06;;;;;;;;;12.67;7.83;;;;;6.96;44.01;100908.69;6349625;20;1816998;-48
2022/02/27 09:04:35;;;;;;;;;14.00;10.50;;;;;6.66;43.88;100914.81;6284314;20;2795048;-49
2022/02/27 09:07:03;;;;;;;;;12.00;10.00;;;;;6.92;44.11;100911.47;6282205;20;2783584;-46
2022/02/27 09:09:31;;;;;;;;;15.00;8.00;;;;;6.96;43.71;100914.03;6286045;20;2767978;-44
2022/02/27 09:12:06;;;;;;;;;0.17;0.00;;;;;7.11;43.15;100917.19;6320501;20;2698318;-47
2022/02/27 09:14:35;;;;;;;;;8.75;6.25;;;;;7.12;42.89;100924.28;6304317;20;1824366;-46
2022/02/27 09:17:04;;;;;;;;;7.25;7.25;;;;;6.94;42.18;100912.31;6331526;20;1808870;-43
2022/02/27 09:19:32;;;;;;;;;16.00;11.00;;;;;6.74;42.55;100908.38;6312529;20;2785016;-45
2022/02/27 09:22:01;;;;;;;;;15.00;9.25;;;;;6.97;43.06;100912.22;6304736;20;1804454;-42
2022/02/27 09:24:31;;;;;;;;;9.80;6.80;;;;;7.19;42.53;100916.06;6342284;20;2742111;-44
2022/02/27 09:26:59;;;;;;;;;10.00;7.00;;;;;6.77;42.33;100913.66;6317358;20;2764990;-44
2022/02/27 09:29:28;;;;;;;;;7.75;6.50;;;;;7.04;42.53;100913.81;6300844;20;1818036;-42
2022/02/27 09:31:56;;;;;;;;;9.00;8.00;;;;;7.04;42.15;100928.03;6315386;20;2742957;-42
2022/02/27 09:34:24;;;;;;;;;7.50;6.00;;;;;6.73;42.46;100922.63;6286062;20;2752334;-43
2022/02/27 09:36:54;;;;;;;;;10.50;6.50;;;;;6.98;42.09;100916.66;6286379;20;2764835;-49
2022/02/27 09:39:26;;;;;;;;;10.50;9.50;;;;;6.94;42.31;100925.66;6289596;20;2765992;-47
2022/02/27 09:41:55;;;;;;;;;4.75;3.00;;;;;6.98;42.35;100922.00;6331446;20;1812949;-44
2022/02/27 09:44:24;;;;;;;;;5.75;5.75;;;;;7.02;42.60;100916.50;6336773;20;1808066;-45
2022/02/27 09:46:58;;;;;;;;;9.00;8.00;;;;;6.84;42.21;100935.69;6318591;20;2748190;-44
2022/02/27 09:49:26;;;;;;;;;2.00;2.00;;;;;7.01;42.70;100916.56;6283517;20;3447233;-44
2022/02/27 09:51:56;;;;;;;;;1.50;1.00;;;;;7.03;42.46;100915.63;6324342;20;2738848;-47
2022/02/27 09:54:25;;;;;;;;;12.00;8.00;;;;;7.38;42.10;100923.56;6315077;20;2766937;-51
2022/02/27 09:56:53;;;;;;;;;14.00;11.00;;;;;7.17;42.10;100922.38;6280345;20;2781504;-46
2022/02/27 09:59:22;;;;;;;;;10.50;8.00;;;;;7.29;42.16;100916.66;6297710;20;1818104;-45
2022/02/27 10:02:16;;;;;;;;;14.50;10.00;;;;;7.39;42.13;100919.97;6315145;20;2778939;-45
2022/02/27 10:04:48;;;;;;;;;10.50;8.00;;;;;7.94;41.89;100914.78;6279277;20;2749206;-45
2022/02/27 10:07:19;;;;;;;;;12.00;10.50;;;;;7.56;41.40;100914.16;6309962;20;2771186;-47
2022/02/27 10:09:48;;;;;;;;;7.50;7.00;;;;;7.73;41.40;100916.31;6284787;20;2741950;-49
2022/02/27 10:12:21;;;;;;;;;6.50;4.75;;;;;7.96;41.49;100913.81;6332330;20;1816073;-47
2022/02/27 10:15:15;;;;;;;;;6.00;5.00;;;;;8.14;41.20;100907.88;6321118;20;2752407;-46
2022/02/27 10:17:44;;;;;;;;;6.00;6.00;;;;;8.49;40.41;100908.56;6286768;20;2742003;-47
2022/02/27 10:20:16;;;;;;;;;6.00;6.00;;;;;7.86;40.34;100907.00;6289348;20;2748197;-45
2022/02/27 10:22:50;;;;;;;;;8.00;5.00;;;;;8.15;40.30;100895.38;6289764;20;2749207;-46
2022/02/27 10:25:28;;;;;;;;;16.20;8.40;;;;;8.45;40.04;100906.03;6346026;20;2771125;-45
2022/02/27 10:28:03;;;;;;;;;11.50;7.50;;;;;8.59;39.22;100909.13;6288018;20;2759749;-49
2022/02/27 10:30:38;;;;;;;;;12.00;7.00;;;;;8.60;38.86;100905.53;6286653;20;2756506;-49
2022/02/27 10:33:09;;;;;;;;;12.00;12.00;;;;;8.92;39.17;100912.44;6290037;20;2788822;-47
2022/02/27 10:35:47;;;;;;;;;21.00;17.00;;;;;8.51;39.67;100901.34;6290300;20;2822121;-46
2022/02/27 10:38:51;;;;;;;;;3.25;3.25;;;;;8.55;38.47;100897.63;6308034;20;1823478;-48
2022/02/27 10:41:23;;;;;;;;;13.86;8.00;;;;;7.91;39.20;100883.66;6362368;20;1805580;-45
2022/02/27 10:43:53;;;;;;;;;12.00;9.00;;;;;8.40;39.00;100892.81;6319332;20;2761057;-45
2022/02/27 10:46:28;;;;;;;;;8.00;7.00;;;;;8.99;38.55;100895.22;6292878;20;2740929;-46
2022/02/27 10:48:56;;;;;;;;;7.00;7.00;;;;;8.33;38.90;100880.53;6290522;20;2729666;-48
2022/02/27 10:51:34;;;;;;;;;12.00;11.33;;;;;8.70;38.87;100880.19;6320792;20;3517944;-43
2022/02/27 10:54:02;;;;;;;;;6.00;6.00;;;;;9.10;38.45;100883.25;6321051;20;2748192;-46
2022/02/27 10:56:34;;;;;;;;;7.00;6.00;;;;;8.88;37.88;100883.16;6290734;20;2749203;-44
2022/02/27 10:59:13;;;;;;;;;10.50;9.00;;;;;8.62;37.72;100879.59;6289379;20;2750285;-45
2022/02/27 11:01:41;;;;;;;;;6.50;6.00;;;;;8.52;38.49;100870.97;6287154;20;2752343;-46
2022/02/27 11:04:11;;;;;;;;;6.50;6.00;;;;;9.22;37.69;100872.09;6290845;20;2747240;-46
2022/02/27 11:06:39;;;;;;;;;11.50;6.50;;;;;9.63;37.55;100869.66;6285147;20;2758621;-46
2022/02/27 11:09:07;;;;;;;;;8.00;4.50;;;;;9.39;37.49;100858.91;6286146;20;2735809;-45
2022/02/27 11:11:36;;;;;;;;;7.50;3.00;;;;;9.67;37.20;100848.03;6334175;20;1809892;-47
2022/02/27 11:14:04;;;;;;;;;7.00;7.00;;;;;9.82;37.18;100846.56;6318454;20;2748277;-44